sensor_id;sensor_type;location;lat;lon;timestamp;P1;durP1;ratioP1;P2;durP2;ratioP2
8694;SDS011;65580;49.446;6.854;2023-04-24T00:01:51;3.03;;;1.17;;
8694;SDS011;65580;49.446;6.854;2023-04-24T00:05:55;3.13;;;0.68;;
8694;SDS011;65580;49.446;6.854;2023-04-24T00:09:58;1.17;;;0.57;;
8694;SDS011;65580;49.446;6.854;2023-04-24T00:14:03;1.00;;;0.80;;
8694;SDS011;65580;49.446;6.854;2023-04-24T00:18:08;1.20;;;0.80;;
8694;SDS011;65580;49.446;6.854;2023-04-24T00:22:11;0.90;;;0.57;;
8694;SDS011;65580;49.446;6.854;2023-04-24T00:26:16;2.67;;;0.80;;
8694;SDS011;65580;49.446;6.854;2023-04-24T00:30:21;1.35;;;0.90;;
8694;SDS011;65580;49.446;6.854;2023-04-24T00:34:23;2.60;;;1.27;;
8694;SDS011;65580;49.446;6.854;2023-04-24T00:38:26;2.90;;;1.10;;
8694;SDS011;65580;49.446;6.854;2023-04-24T00:42:29;1.13;;;0.98;;
8694;SDS011;65580;49.446;6.854;2023-04-24T00:46:33;1.98;;;1.08;;
8694;SDS011;65580;49.446;6.854;2023-04-24T00:50:36;1.33;;;1.13;;
8694;SDS011;65580;49.446;6.854;2023-04-24T00:54:40;1.65;;;1.00;;
8694;SDS011;65580;49.446;6.854;2023-04-24T00:58:43;1.90;;;1.40;;
8694;SDS011;65580;49.446;6.854;2023-04-24T01:02:48;3.10;;;1.60;;
8694;SDS011;65580;49.446;6.854;2023-04-24T01:06:53;1.30;;;1.20;;
8694;SDS011;65580;49.446;6.854;2023-04-24T01:10:57;2.05;;;1.80;;
8694;SDS011;65580;49.446;6.854;2023-04-24T01:15:01;2.70;;;1.73;;
8694;SDS011;65580;49.446;6.854;2023-04-24T01:19:06;4.38;;;2.35;;
8694;SDS011;65580;49.446;6.854;2023-04-24T01:23:11;2.80;;;2.17;;
8694;SDS011;65580;49.446;6.854;2023-04-24T01:27:14;4.30;;;2.55;;
8694;SDS011;65580;49.446;6.854;2023-04-24T01:31:17;4.50;;;2.58;;
8694;SDS011;65580;49.446;6.854;2023-04-24T01:35:21;3.22;;;2.10;;
8694;SDS011;65580;49.446;6.854;2023-04-24T01:39:25;7.53;;;2.55;;
8694;SDS011;65580;49.446;6.854;2023-04-24T01:43:29;4.50;;;2.85;;
8694;SDS011;65580;49.446;6.854;2023-04-24T01:47:32;4.60;;;2.50;;
8694;SDS011;65580;49.446;6.854;2023-04-24T01:51:35;4.28;;;2.33;;
8694;SDS011;65580;49.446;6.854;2023-04-24T01:55:39;4.47;;;2.55;;
8694;SDS011;65580;49.446;6.854;2023-04-24T01:59:42;4.00;;;2.78;;
8694;SDS011;65580;49.446;6.854;2023-04-24T02:03:46;6.18;;;2.85;;
8694;SDS011;65580;49.446;6.854;2023-04-24T02:07:49;8.52;;;3.10;;
8694;SDS011;65580;49.446;6.854;2023-04-24T02:11:53;4.20;;;2.78;;
8694;SDS011;65580;49.446;6.854;2023-04-24T02:15:57;4.75;;;2.95;;
8694;SDS011;65580;49.446;6.854;2023-04-24T02:20:00;6.13;;;3.22;;
8694;SDS011;65580;49.446;6.854;2023-04-24T02:24:04;6.88;;;2.92;;
8694;SDS011;65580;49.446;6.854;2023-04-24T02:28:08;10.40;;;3.92;;
8694;SDS011;65580;49.446;6.854;2023-04-24T02:32:12;6.68;;;3.72;;
8694;SDS011;65580;49.446;6.854;2023-04-24T02:36:17;8.10;;;3.70;;
8694;SDS011;65580;49.446;6.854;2023-04-24T02:40:19;8.57;;;3.75;;
8694;SDS011;65580;49.446;6.854;2023-04-24T02:44:24;13.27;;;4.68;;
8694;SDS011;65580;49.446;6.854;2023-04-24T02:48:27;7.22;;;4.13;;
8694;SDS011;65580;49.446;6.854;2023-04-24T02:52:30;8.57;;;4.20;;
8694;SDS011;65580;49.446;6.854;2023-04-24T02:56:33;8.82;;;5.03;;
8694;SDS011;65580;49.446;6.854;2023-04-24T03:00:37;9.57;;;4.70;;
8694;SDS011;65580;49.446;6.854;2023-04-24T03:04:41;6.50;;;4.18;;
8694;SDS011;65580;49.446;6.854;2023-04-24T03:08:44;8.25;;;4.72;;
8694;SDS011;65580;49.446;6.854;2023-04-24T03:12:47;6.85;;;4.55;;
8694;SDS011;65580;49.446;6.854;2023-04-24T03:16:51;8.05;;;4.47;;
8694;SDS011;65580;49.446;6.854;2023-04-24T03:20:54;8.00;;;4.93;;
8694;SDS011;65580;49.446;6.854;2023-04-24T03:24:57;8.45;;;4.45;;
8694;SDS011;65580;49.446;6.854;2023-04-24T03:29:00;6.93;;;4.35;;
8694;SDS011;65580;49.446;6.854;2023-04-24T03:33:04;9.73;;;5.28;;
8694;SDS011;65580;49.446;6.854;2023-04-24T03:37:07;7.93;;;4.38;;
8694;SDS011;65580;49.446;6.854;2023-04-24T03:41:10;8.38;;;4.80;;
8694;SDS011;65580;49.446;6.854;2023-04-24T03:45:13;9.60;;;5.25;;
8694;SDS011;65580;49.446;6.854;2023-04-24T03:49:18;10.88;;;5.05;;
8694;SDS011;65580;49.446;6.854;2023-04-24T03:53:22;8.02;;;4.47;;
8694;SDS011;65580;49.446;6.854;2023-04-24T03:57:26;8.27;;;4.85;;
8694;SDS011;65580;49.446;6.854;2023-04-24T04:01:28;10.38;;;5.35;;
8694;SDS011;65580;49.446;6.854;2023-04-24T04:05:33;9.02;;;5.40;;
8694;SDS011;65580;49.446;6.854;2023-04-24T04:09:36;13.82;;;6.55;;
8694;SDS011;65580;49.446;6.854;2023-04-24T04:13:39;12.90;;;6.03;;
8694;SDS011;65580;49.446;6.854;2023-04-24T04:17:42;8.82;;;5.30;;
8694;SDS011;65580;49.446;6.854;2023-04-24T04:21:46;12.02;;;6.03;;
8694;SDS011;65580;49.446;6.854;2023-04-24T04:25:53;14.63;;;6.38;;
8694;SDS011;65580;49.446;6.854;2023-04-24T04:29:56;15.13;;;6.38;;
8694;SDS011;65580;49.446;6.854;2023-04-24T04:33:58;10.20;;;6.00;;
8694;SDS011;65580;49.446;6.854;2023-04-24T04:42:09;13.25;;;6.40;;
8694;SDS011;65580;49.446;6.854;2023-04-24T04:46:13;12.32;;;6.28;;
8694;SDS011;65580;49.446;6.854;2023-04-24T04:50:15;9.43;;;5.78;;
8694;SDS011;65580;49.446;6.854;2023-04-24T04:54:22;15.98;;;7.00;;
8694;SDS011;65580;49.446;6.854;2023-04-24T04:58:25;12.75;;;6.43;;
8694;SDS011;65580;49.446;6.854;2023-04-24T05:02:28;11.35;;;6.22;;
8694;SDS011;65580;49.446;6.854;2023-04-24T05:06:30;12.48;;;6.10;;
8694;SDS011;65580;49.446;6.854;2023-04-24T05:10:35;15.15;;;7.15;;
8694;SDS011;65580;49.446;6.854;2023-04-24T05:14:38;10.18;;;6.10;;
8694;SDS011;65580;49.446;6.854;2023-04-24T05:18:42;11.38;;;6.88;;
8694;SDS011;65580;49.446;6.854;2023-04-24T05:22:45;13.18;;;6.85;;
8694;SDS011;65580;49.446;6.854;2023-04-24T05:26:49;10.70;;;6.07;;
8694;SDS011;65580;49.446;6.854;2023-04-24T05:30:52;10.35;;;6.03;;
8694;SDS011;65580;49.446;6.854;2023-04-24T05:34:56;12.50;;;5.78;;
8694;SDS011;65580;49.446;6.854;2023-04-24T05:38:59;10.93;;;5.80;;
8694;SDS011;65580;49.446;6.854;2023-04-24T05:43:05;10.88;;;5.38;;
8694;SDS011;65580;49.446;6.854;2023-04-24T05:47:08;8.75;;;5.65;;
8694;SDS011;65580;49.446;6.854;2023-04-24T05:51:11;13.15;;;6.38;;
8694;SDS011;65580;49.446;6.854;2023-04-24T05:55:14;10.15;;;5.68;;
8694;SDS011;65580;49.446;6.854;2023-04-24T05:59:21;10.40;;;5.10;;
8694;SDS011;65580;49.446;6.854;2023-04-24T06:03:24;10.05;;;4.95;;
8694;SDS011;65580;49.446;6.854;2023-04-24T06:07:28;8.80;;;5.30;;
8694;SDS011;65580;49.446;6.854;2023-04-24T06:11:31;8.30;;;4.82;;
8694;SDS011;65580;49.446;6.854;2023-04-24T06:15:35;11.70;;;4.50;;
8694;SDS011;65580;49.446;6.854;2023-04-24T06:19:38;6.82;;;4.07;;
8694;SDS011;65580;49.446;6.854;2023-04-24T06:23:42;7.05;;;4.20;;
8694;SDS011;65580;49.446;6.854;2023-04-24T06:27:44;9.05;;;4.32;;
8694;SDS011;65580;49.446;6.854;2023-04-24T06:31:48;8.85;;;4.10;;
8694;SDS011;65580;49.446;6.854;2023-04-24T06:35:51;6.70;;;4.45;;
8694;SDS011;65580;49.446;6.854;2023-04-24T06:39:57;6.32;;;3.97;;
8694;SDS011;65580;49.446;6.854;2023-04-24T06:44:00;9.38;;;4.40;;
8694;SDS011;65580;49.446;6.854;2023-04-24T06:48:04;8.93;;;4.07;;
8694;SDS011;65580;49.446;6.854;2023-04-24T06:52:07;7.18;;;4.90;;
8694;SDS011;65580;49.446;6.854;2023-04-24T06:56:10;10.57;;;4.18;;
8694;SDS011;65580;49.446;6.854;2023-04-24T07:00:14;6.93;;;4.10;;
8694;SDS011;65580;49.446;6.854;2023-04-24T07:04:20;8.05;;;3.88;;
8694;SDS011;65580;49.446;6.854;2023-04-24T07:08:23;7.63;;;3.67;;
8694;SDS011;65580;49.446;6.854;2023-04-24T07:12:26;5.40;;;3.20;;
8694;SDS011;65580;49.446;6.854;2023-04-24T07:16:29;5.43;;;3.55;;
8694;SDS011;65580;49.446;6.854;2023-04-24T07:20:33;10.00;;;4.53;;
8694;SDS011;65580;49.446;6.854;2023-04-24T07:24:36;8.23;;;3.45;;
8694;SDS011;65580;49.446;6.854;2023-04-24T07:28:39;5.82;;;3.70;;
8694;SDS011;65580;49.446;6.854;2023-04-24T07:32:42;9.43;;;4.00;;
8694;SDS011;65580;49.446;6.854;2023-04-24T07:36:46;8.50;;;4.28;;
8694;SDS011;65580;49.446;6.854;2023-04-24T07:40:49;12.30;;;4.65;;
8694;SDS011;65580;49.446;6.854;2023-04-24T07:44:52;6.43;;;4.50;;
8694;SDS011;65580;49.446;6.854;2023-04-24T07:48:55;7.65;;;4.15;;
8694;SDS011;65580;49.446;6.854;2023-04-24T07:53:15;10.60;;;5.00;;
8694;SDS011;65580;49.446;6.854;2023-04-24T07:57:17;8.02;;;4.63;;
8694;SDS011;65580;49.446;6.854;2023-04-24T08:01:21;9.48;;;5.10;;
8694;SDS011;65580;49.446;6.854;2023-04-24T08:05:23;10.23;;;4.70;;
8694;SDS011;65580;49.446;6.854;2023-04-24T08:09:30;8.32;;;4.45;;
8694;SDS011;65580;49.446;6.854;2023-04-24T08:13:32;7.25;;;4.32;;
8694;SDS011;65580;49.446;6.854;2023-04-24T08:17:35;7.97;;;4.30;;
8694;SDS011;65580;49.446;6.854;2023-04-24T08:21:38;9.57;;;5.30;;
8694;SDS011;65580;49.446;6.854;2023-04-24T08:25:42;7.35;;;3.92;;
8694;SDS011;65580;49.446;6.854;2023-04-24T08:29:44;6.63;;;3.90;;
8694;SDS011;65580;49.446;6.854;2023-04-24T08:33:47;7.68;;;4.00;;
8694;SDS011;65580;49.446;6.854;2023-04-24T08:37:51;7.88;;;4.25;;
8694;SDS011;65580;49.446;6.854;2023-04-24T08:41:57;8.57;;;4.50;;
8694;SDS011;65580;49.446;6.854;2023-04-24T08:46:06;14.30;;;5.10;;
8694;SDS011;65580;49.446;6.854;2023-04-24T08:50:12;6.78;;;4.45;;
8694;SDS011;65580;49.446;6.854;2023-04-24T08:58:20;13.32;;;5.07;;
8694;SDS011;65580;49.446;6.854;2023-04-24T09:02:23;13.30;;;5.40;;
8694;SDS011;65580;49.446;6.854;2023-04-24T09:06:27;10.43;;;5.40;;
8694;SDS011;65580;49.446;6.854;2023-04-24T09:14:35;13.07;;;5.60;;
8694;SDS011;65580;49.446;6.854;2023-04-24T09:18:40;15.77;;;4.68;;
8694;SDS011;65580;49.446;6.854;2023-04-24T09:22:43;12.00;;;6.43;;
8694;SDS011;65580;49.446;6.854;2023-04-24T09:26:47;12.68;;;5.78;;
8694;SDS011;65580;49.446;6.854;2023-04-24T09:31:02;11.20;;;5.63;;
8694;SDS011;65580;49.446;6.854;2023-04-24T09:35:07;11.57;;;5.78;;
8694;SDS011;65580;49.446;6.854;2023-04-24T09:39:12;14.48;;;5.75;;
8694;SDS011;65580;49.446;6.854;2023-04-24T09:43:16;17.52;;;5.78;;
8694;SDS011;65580;49.446;6.854;2023-04-24T09:47:20;11.45;;;5.30;;
8694;SDS011;65580;49.446;6.854;2023-04-24T09:51:33;11.32;;;4.93;;
8694;SDS011;65580;49.446;6.854;2023-04-24T09:55:38;11.32;;;4.78;;
8694;SDS011;65580;49.446;6.854;2023-04-24T09:59:42;10.23;;;3.72;;
8694;SDS011;65580;49.446;6.854;2023-04-24T10:03:47;9.27;;;4.03;;
8694;SDS011;65580;49.446;6.854;2023-04-24T10:07:50;8.07;;;3.53;;
8694;SDS011;65580;49.446;6.854;2023-04-24T10:11:54;6.70;;;3.25;;
8694;SDS011;65580;49.446;6.854;2023-04-24T10:15:57;8.95;;;3.47;;
8694;SDS011;65580;49.446;6.854;2023-04-24T10:20:03;5.68;;;3.40;;
8694;SDS011;65580;49.446;6.854;2023-04-24T10:24:07;8.60;;;4.30;;
8694;SDS011;65580;49.446;6.854;2023-04-24T10:28:11;7.32;;;4.32;;
8694;SDS011;65580;49.446;6.854;2023-04-24T10:32:14;6.60;;;3.95;;
8694;SDS011;65580;49.446;6.854;2023-04-24T10:36:18;9.50;;;4.50;;
8694;SDS011;65580;49.446;6.854;2023-04-24T10:40:25;8.63;;;5.07;;
8694;SDS011;65580;49.446;6.854;2023-04-24T10:44:35;10.77;;;4.55;;
8694;SDS011;65580;49.446;6.854;2023-04-24T10:48:41;7.13;;;4.00;;
8694;SDS011;65580;49.446;6.854;2023-04-24T10:52:47;8.27;;;3.80;;
8694;SDS011;65580;49.446;6.854;2023-04-24T10:56:52;9.18;;;4.15;;
8694;SDS011;65580;49.446;6.854;2023-04-24T11:00:56;10.32;;;3.85;;
8694;SDS011;65580;49.446;6.854;2023-04-24T11:05:01;6.93;;;3.72;;
8694;SDS011;65580;49.446;6.854;2023-04-24T11:09:07;7.80;;;3.83;;
8694;SDS011;65580;49.446;6.854;2023-04-24T11:13:16;8.18;;;4.53;;
8694;SDS011;65580;49.446;6.854;2023-04-24T11:17:28;6.93;;;3.90;;
8694;SDS011;65580;49.446;6.854;2023-04-24T11:21:33;8.07;;;4.55;;
8694;SDS011;65580;49.446;6.854;2023-04-24T11:29:48;8.20;;;4.40;;
8694;SDS011;65580;49.446;6.854;2023-04-24T11:33:51;6.28;;;3.72;;
8694;SDS011;65580;49.446;6.854;2023-04-24T11:37:55;7.03;;;4.10;;
8694;SDS011;65580;49.446;6.854;2023-04-24T11:42:03;8.68;;;4.25;;
8694;SDS011;65580;49.446;6.854;2023-04-24T11:46:08;9.45;;;3.75;;
8694;SDS011;65580;49.446;6.854;2023-04-24T11:50:11;8.50;;;4.30;;
8694;SDS011;65580;49.446;6.854;2023-04-24T11:54:15;8.90;;;5.03;;
8694;SDS011;65580;49.446;6.854;2023-04-24T11:58:21;9.45;;;5.20;;
8694;SDS011;65580;49.446;6.854;2023-04-24T12:02:25;9.77;;;5.40;;
8694;SDS011;65580;49.446;6.854;2023-04-24T12:06:28;11.50;;;5.10;;
8694;SDS011;65580;49.446;6.854;2023-04-24T12:10:32;8.20;;;4.72;;
8694;SDS011;65580;49.446;6.854;2023-04-24T12:14:43;6.82;;;4.20;;
8694;SDS011;65580;49.446;6.854;2023-04-24T12:18:52;9.75;;;4.47;;
8694;SDS011;65580;49.446;6.854;2023-04-24T12:22:55;7.57;;;3.70;;
8694;SDS011;65580;49.446;6.854;2023-04-24T12:26:59;5.03;;;3.20;;
8694;SDS011;65580;49.446;6.854;2023-04-24T12:35:07;7.10;;;2.90;;
8694;SDS011;65580;49.446;6.854;2023-04-24T12:43:17;5.95;;;3.28;;
8694;SDS011;65580;49.446;6.854;2023-04-24T12:47:21;5.38;;;2.70;;
8694;SDS011;65580;49.446;6.854;2023-04-24T12:51:24;6.18;;;3.17;;
8694;SDS011;65580;49.446;6.854;2023-04-24T12:55:27;6.07;;;3.75;;
8694;SDS011;65580;49.446;6.854;2023-04-24T12:59:30;6.20;;;3.90;;
8694;SDS011;65580;49.446;6.854;2023-04-24T13:03:34;9.57;;;4.35;;
8694;SDS011;65580;49.446;6.854;2023-04-24T13:07:37;7.63;;;5.00;;
8694;SDS011;65580;49.446;6.854;2023-04-24T13:11:40;9.40;;;5.13;;
8694;SDS011;65580;49.446;6.854;2023-04-24T13:15:43;7.90;;;4.82;;
8694;SDS011;65580;49.446;6.854;2023-04-24T13:19:48;9.00;;;4.43;;
8694;SDS011;65580;49.446;6.854;2023-04-24T13:23:52;8.68;;;4.10;;
8694;SDS011;65580;49.446;6.854;2023-04-24T13:27:57;8.93;;;3.78;;
8694;SDS011;65580;49.446;6.854;2023-04-24T13:32:00;9.43;;;3.58;;
8694;SDS011;65580;49.446;6.854;2023-04-24T13:36:04;6.63;;;3.55;;
8694;SDS011;65580;49.446;6.854;2023-04-24T13:40:07;4.28;;;3.10;;
8694;SDS011;65580;49.446;6.854;2023-04-24T13:44:11;5.57;;;3.10;;
8694;SDS011;65580;49.446;6.854;2023-04-24T13:48:14;5.22;;;3.05;;
8694;SDS011;65580;49.446;6.854;2023-04-24T13:52:18;4.57;;;2.60;;
8694;SDS011;65580;49.446;6.854;2023-04-24T13:56:21;3.28;;;2.45;;
8694;SDS011;65580;49.446;6.854;2023-04-24T14:00:24;5.03;;;2.80;;
8694;SDS011;65580;49.446;6.854;2023-04-24T14:04:27;4.07;;;2.50;;
8694;SDS011;65580;49.446;6.854;2023-04-24T14:08:32;5.38;;;2.25;;
8694;SDS011;65580;49.446;6.854;2023-04-24T14:12:34;6.07;;;2.42;;
8694;SDS011;65580;49.446;6.854;2023-04-24T14:16:37;6.50;;;2.35;;
8694;SDS011;65580;49.446;6.854;2023-04-24T14:20:40;3.80;;;2.40;;
8694;SDS011;65580;49.446;6.854;2023-04-24T14:24:44;4.55;;;2.50;;
8694;SDS011;65580;49.446;6.854;2023-04-24T14:28:47;10.57;;;2.75;;
8694;SDS011;65580;49.446;6.854;2023-04-24T14:32:52;5.65;;;2.28;;
8694;SDS011;65580;49.446;6.854;2023-04-24T14:36:55;3.97;;;2.40;;
8694;SDS011;65580;49.446;6.854;2023-04-24T14:40:59;1.70;;;1.52;;
8694;SDS011;65580;49.446;6.854;2023-04-24T14:45:09;2.75;;;1.45;;
8694;SDS011;65580;49.446;6.854;2023-04-24T14:49:12;1.70;;;1.17;;
8694;SDS011;65580;49.446;6.854;2023-04-24T14:53:15;3.45;;;2.08;;
8694;SDS011;65580;49.446;6.854;2023-04-24T14:57:19;2.83;;;1.85;;
8694;SDS011;65580;49.446;6.854;2023-04-24T15:01:22;3.10;;;2.10;;
8694;SDS011;65580;49.446;6.854;2023-04-24T15:05:26;4.07;;;2.58;;
8694;SDS011;65580;49.446;6.854;2023-04-24T15:09:30;3.75;;;2.55;;
8694;SDS011;65580;49.446;6.854;2023-04-24T15:13:35;4.18;;;2.50;;
8694;SDS011;65580;49.446;6.854;2023-04-24T15:17:37;3.95;;;2.63;;
8694;SDS011;65580;49.446;6.854;2023-04-24T15:21:40;4.10;;;2.08;;
8694;SDS011;65580;49.446;6.854;2023-04-24T15:25:44;2.65;;;1.98;;
8694;SDS011;65580;49.446;6.854;2023-04-24T15:29:48;5.32;;;2.50;;
8694;SDS011;65580;49.446;6.854;2023-04-24T15:33:51;4.13;;;2.35;;
8694;SDS011;65580;49.446;6.854;2023-04-24T15:37:56;4.72;;;2.83;;
8694;SDS011;65580;49.446;6.854;2023-04-24T15:41:59;5.57;;;2.42;;
8694;SDS011;65580;49.446;6.854;2023-04-24T15:46:03;8.25;;;3.30;;
8694;SDS011;65580;49.446;6.854;2023-04-24T15:50:06;6.63;;;3.30;;
8694;SDS011;65580;49.446;6.854;2023-04-24T15:54:14;8.93;;;3.15;;
8694;SDS011;65580;49.446;6.854;2023-04-24T15:58:17;4.60;;;2.17;;
8694;SDS011;65580;49.446;6.854;2023-04-24T16:06:24;8.60;;;4.57;;
8694;SDS011;65580;49.446;6.854;2023-04-24T16:10:28;2.92;;;1.88;;
8694;SDS011;65580;49.446;6.854;2023-04-24T16:14:30;3.63;;;1.65;;
8694;SDS011;65580;49.446;6.854;2023-04-24T16:18:34;4.05;;;1.77;;
8694;SDS011;65580;49.446;6.854;2023-04-24T16:22:37;3.00;;;1.77;;
8694;SDS011;65580;49.446;6.854;2023-04-24T16:26:40;2.15;;;1.65;;
8694;SDS011;65580;49.446;6.854;2023-04-24T16:30:43;5.15;;;2.22;;
8694;SDS011;65580;49.446;6.854;2023-04-24T16:34:47;3.17;;;2.10;;
8694;SDS011;65580;49.446;6.854;2023-04-24T16:38:50;3.13;;;2.30;;
8694;SDS011;65580;49.446;6.854;2023-04-24T16:42:53;6.32;;;2.55;;
8694;SDS011;65580;49.446;6.854;2023-04-24T16:46:56;4.53;;;2.25;;
8694;SDS011;65580;49.446;6.854;2023-04-24T16:51:00;6.40;;;2.75;;
8694;SDS011;65580;49.446;6.854;2023-04-24T16:55:03;6.57;;;2.60;;
8694;SDS011;65580;49.446;6.854;2023-04-24T16:59:06;4.03;;;2.55;;
8694;SDS011;65580;49.446;6.854;2023-04-24T17:03:09;5.22;;;3.05;;
8694;SDS011;65580;49.446;6.854;2023-04-24T17:07:14;6.63;;;2.60;;
8694;SDS011;65580;49.446;6.854;2023-04-24T17:11:17;7.70;;;2.92;;
8694;SDS011;65580;49.446;6.854;2023-04-24T17:15:21;6.82;;;3.28;;
8694;SDS011;65580;49.446;6.854;2023-04-24T17:19:23;5.45;;;3.42;;
8694;SDS011;65580;49.446;6.854;2023-04-24T17:23:28;5.93;;;3.33;;
8694;SDS011;65580;49.446;6.854;2023-04-24T17:27:31;5.57;;;3.15;;
8694;SDS011;65580;49.446;6.854;2023-04-24T17:31:34;5.70;;;3.20;;
8694;SDS011;65580;49.446;6.854;2023-04-24T17:35:37;6.85;;;3.40;;
8694;SDS011;65580;49.446;6.854;2023-04-24T17:39:41;5.75;;;3.50;;
8694;SDS011;65580;49.446;6.854;2023-04-24T17:43:43;4.15;;;2.90;;
8694;SDS011;65580;49.446;6.854;2023-04-24T17:47:46;8.57;;;3.03;;
8694;SDS011;65580;49.446;6.854;2023-04-24T17:51:51;4.38;;;2.83;;
8694;SDS011;65580;49.446;6.854;2023-04-24T17:55:56;4.78;;;3.05;;
8694;SDS011;65580;49.446;6.854;2023-04-24T18:00:02;6.43;;;3.22;;
8694;SDS011;65580;49.446;6.854;2023-04-24T18:04:05;5.43;;;3.00;;
8694;SDS011;65580;49.446;6.854;2023-04-24T18:08:08;5.60;;;3.03;;
8694;SDS011;65580;49.446;6.854;2023-04-24T18:12:12;5.97;;;3.05;;
8694;SDS011;65580;49.446;6.854;2023-04-24T18:16:16;5.28;;;2.80;;
8694;SDS011;65580;49.446;6.854;2023-04-24T18:20:19;4.95;;;2.88;;
8694;SDS011;65580;49.446;6.854;2023-04-24T18:24:22;7.90;;;3.13;;
8694;SDS011;65580;49.446;6.854;2023-04-24T18:28:26;5.32;;;3.10;;
8694;SDS011;65580;49.446;6.854;2023-04-24T18:32:31;7.10;;;3.13;;
8694;SDS011;65580;49.446;6.854;2023-04-24T18:36:34;6.38;;;3.40;;
8694;SDS011;65580;49.446;6.854;2023-04-24T18:40:37;6.82;;;3.60;;
8694;SDS011;65580;49.446;6.854;2023-04-24T18:44:41;6.63;;;3.40;;
8694;SDS011;65580;49.446;6.854;2023-04-24T18:48:43;6.82;;;3.38;;
8694;SDS011;65580;49.446;6.854;2023-04-24T18:52:46;8.60;;;4.50;;
8694;SDS011;65580;49.446;6.854;2023-04-24T18:56:49;7.25;;;3.45;;
8694;SDS011;65580;49.446;6.854;2023-04-24T19:00:56;7.72;;;3.85;;
8694;SDS011;65580;49.446;6.854;2023-04-24T19:04:59;6.32;;;3.97;;
8694;SDS011;65580;49.446;6.854;2023-04-24T19:09:01;8.15;;;4.25;;
8694;SDS011;65580;49.446;6.854;2023-04-24T19:13:04;9.35;;;5.10;;
8694;SDS011;65580;49.446;6.854;2023-04-24T19:17:08;11.15;;;4.55;;
8694;SDS011;65580;49.446;6.854;2023-04-24T19:21:11;7.07;;;4.00;;
8694;SDS011;65580;49.446;6.854;2023-04-24T19:25:14;7.45;;;3.75;;
8694;SDS011;65580;49.446;6.854;2023-04-24T19:29:17;6.15;;;3.67;;
8694;SDS011;65580;49.446;6.854;2023-04-24T19:33:21;6.85;;;3.17;;
8694;SDS011;65580;49.446;6.854;2023-04-24T19:37:24;5.57;;;3.22;;
8694;SDS011;65580;49.446;6.854;2023-04-24T19:41:26;6.78;;;3.33;;
8694;SDS011;65580;49.446;6.854;2023-04-24T19:45:29;4.75;;;2.92;;
8694;SDS011;65580;49.446;6.854;2023-04-24T19:49:33;6.55;;;3.42;;
8694;SDS011;65580;49.446;6.854;2023-04-24T19:53:36;4.45;;;2.95;;
8694;SDS011;65580;49.446;6.854;2023-04-24T19:57:39;6.68;;;3.72;;
8694;SDS011;65580;49.446;6.854;2023-04-24T20:01:42;8.73;;;3.40;;
8694;SDS011;65580;49.446;6.854;2023-04-24T20:05:46;8.18;;;3.10;;
8694;SDS011;65580;49.446;6.854;2023-04-24T20:09:49;5.65;;;3.67;;
8694;SDS011;65580;49.446;6.854;2023-04-24T20:13:52;9.30;;;3.72;;
8694;SDS011;65580;49.446;6.854;2023-04-24T20:17:55;6.22;;;3.92;;
8694;SDS011;65580;49.446;6.854;2023-04-24T20:21:59;8.73;;;4.45;;
8694;SDS011;65580;49.446;6.854;2023-04-24T20:26:02;7.22;;;4.20;;
8694;SDS011;65580;49.446;6.854;2023-04-24T20:30:05;9.73;;;4.72;;
8694;SDS011;65580;49.446;6.854;2023-04-24T20:34:13;7.18;;;3.20;;
8694;SDS011;65580;49.446;6.854;2023-04-24T20:38:17;6.50;;;3.20;;
8694;SDS011;65580;49.446;6.854;2023-04-24T20:42:19;5.53;;;3.35;;
8694;SDS011;65580;49.446;6.854;2023-04-24T20:46:22;14.82;;;3.08;;
8694;SDS011;65580;49.446;6.854;2023-04-24T20:50:25;5.50;;;3.22;;
8694;SDS011;65580;49.446;6.854;2023-04-24T20:54:29;7.28;;;3.33;;
8694;SDS011;65580;49.446;6.854;2023-04-24T21:02:34;9.75;;;5.32;;
8694;SDS011;65580;49.446;6.854;2023-04-24T21:06:37;5.53;;;3.00;;
8694;SDS011;65580;49.446;6.854;2023-04-24T21:10:41;7.00;;;4.18;;
8694;SDS011;65580;49.446;6.854;2023-04-24T21:14:43;5.82;;;3.80;;
8694;SDS011;65580;49.446;6.854;2023-04-24T21:18:46;6.45;;;3.83;;
8694;SDS011;65580;49.446;6.854;2023-04-24T21:22:49;8.07;;;4.22;;
8694;SDS011;65580;49.446;6.854;2023-04-24T21:26:52;9.50;;;3.83;;
8694;SDS011;65580;49.446;6.854;2023-04-24T21:30:55;6.30;;;3.65;;
8694;SDS011;65580;49.446;6.854;2023-04-24T21:34:58;8.85;;;4.18;;
8694;SDS011;65580;49.446;6.854;2023-04-24T21:39:00;7.28;;;4.65;;
8694;SDS011;65580;49.446;6.854;2023-04-24T21:43:04;11.85;;;4.25;;
8694;SDS011;65580;49.446;6.854;2023-04-24T21:47:07;6.70;;;4.05;;
8694;SDS011;65580;49.446;6.854;2023-04-24T21:51:11;8.65;;;4.97;;
8694;SDS011;65580;49.446;6.854;2023-04-24T21:55:14;10.00;;;4.90;;
8694;SDS011;65580;49.446;6.854;2023-04-24T21:59:18;8.23;;;4.40;;
8694;SDS011;65580;49.446;6.854;2023-04-24T22:03:21;9.15;;;4.95;;
8694;SDS011;65580;49.446;6.854;2023-04-24T22:07:26;8.85;;;4.60;;
8694;SDS011;65580;49.446;6.854;2023-04-24T22:11:29;7.88;;;4.22;;
8694;SDS011;65580;49.446;6.854;2023-04-24T22:15:33;9.38;;;5.00;;
8694;SDS011;65580;49.446;6.854;2023-04-24T22:19:35;8.30;;;4.95;;
8694;SDS011;65580;49.446;6.854;2023-04-24T22:23:39;9.10;;;4.90;;
8694;SDS011;65580;49.446;6.854;2023-04-24T22:27:43;15.15;;;7.45;;
8694;SDS011;65580;49.446;6.854;2023-04-24T22:31:47;12.60;;;6.05;;
8694;SDS011;65580;49.446;6.854;2023-04-24T22:35:50;13.10;;;5.88;;
8694;SDS011;65580;49.446;6.854;2023-04-24T22:39:53;11.50;;;5.88;;
8694;SDS011;65580;49.446;6.854;2023-04-24T22:43:56;12.80;;;6.63;;
8694;SDS011;65580;49.446;6.854;2023-04-24T22:48:00;12.48;;;6.10;;
8694;SDS011;65580;49.446;6.854;2023-04-24T22:52:08;14.15;;;6.30;;
8694;SDS011;65580;49.446;6.854;2023-04-24T22:56:16;13.75;;;6.03;;
8694;SDS011;65580;49.446;6.854;2023-04-24T23:00:29;14.98;;;6.93;;
8694;SDS011;65580;49.446;6.854;2023-04-24T23:04:43;14.45;;;6.50;;
8694;SDS011;65580;49.446;6.854;2023-04-24T23:09:17;12.10;;;6.43;;
8694;SDS011;65580;49.446;6.854;2023-04-24T23:13:27;12.18;;;6.65;;
8694;SDS011;65580;49.446;6.854;2023-04-24T23:17:32;19.17;;;7.57;;
8694;SDS011;65580;49.446;6.854;2023-04-24T23:22:16;15.77;;;7.57;;
8694;SDS011;65580;49.446;6.854;2023-04-24T23:26:41;16.95;;;8.30;;
8694;SDS011;65580;49.446;6.854;2023-04-24T23:30:54;11.85;;;6.45;;
8694;SDS011;65580;49.446;6.854;2023-04-24T23:35:17;13.00;;;7.25;;
8694;SDS011;65580;49.446;6.854;2023-04-24T23:39:31;12.77;;;6.25;;
8694;SDS011;65580;49.446;6.854;2023-04-24T23:43:36;12.55;;;6.60;;
8694;SDS011;65580;49.446;6.854;2023-04-24T23:47:57;17.95;;;8.27;;
8694;SDS011;65580;49.446;6.854;2023-04-24T23:52:11;14.90;;;5.85;;
8694;SDS011;65580;49.446;6.854;2023-04-24T23:56:29;11.80;;;6.68;;
